Terminal Aerodrome Forecast
Issued by NWS

Home | Current Version | Previous Version | Graphics & Text | Print | Product List | Glossary On
Versions: 1 2 3 4 5 6 7 8 9 10 11 12 13 14 15 16 17 18
000
FTUS43 KOAX 172300
TAFCDR
TAF
KCDR 172338Z 1800/1824 16015G22KT P6SM SKC
     FM180200 17013KT P6SM SKC
     FM180600 18022G34KT P6SM SKC
     FM181000 20009KT P6SM SKC
     FM181500 22015G25KT P6SM SCT070=

USA.gov is the U.S. government's official web portal to all federal, state and local government web resources and services.